sensor_id;sensor_type;location;lat;lon;timestamp;pressure;altitude;pressure_sealevel;temperature;humidity
54389;BME280;40975;50.390;8.640;2023-03-16T00:02:15;99577.06;;;-2.69;100.00
54389;BME280;40975;50.390;8.640;2023-03-16T00:04:41;99580.41;;;-2.66;100.00
54389;BME280;40975;50.390;8.640;2023-03-16T00:07:09;99578.94;;;-2.73;100.00
54389;BME280;40975;50.390;8.640;2023-03-16T00:09:34;99592.06;;;-2.77;100.00
54389;BME280;40975;50.390;8.640;2023-03-16T00:12:05;99590.66;;;-2.88;100.00
54389;BME280;40975;50.390;8.640;2023-03-16T00:14:31;99592.41;;;-2.88;100.00
54389;BME280;40975;50.390;8.640;2023-03-16T00:16:59;99589.88;;;-2.90;100.00
54389;BME280;40975;50.390;8.640;2023-03-16T00:19:25;99585.47;;;-2.88;100.00
54389;BME280;40975;50.390;8.640;2023-03-16T00:21:50;99585.31;;;-2.83;100.00
54389;BME280;40975;50.390;8.640;2023-03-16T00:24:17;99585.31;;;-2.83;100.00
54389;BME280;40975;50.390;8.640;2023-03-16T00:26:46;99583.72;;;-2.87;100.00
54389;BME280;40975;50.390;8.640;2023-03-16T00:29:12;99576.94;;;-2.91;100.00
54389;BME280;40975;50.390;8.640;2023-03-16T00:31:38;99579.38;;;-2.87;100.00
54389;BME280;40975;50.390;8.640;2023-03-16T00:34:04;99573.59;;;-2.95;100.00
54389;BME280;40975;50.390;8.640;2023-03-16T00:36:29;99577.97;;;-2.97;100.00
54389;BME280;40975;50.390;8.640;2023-03-16T00:38:58;99579.22;;;-3.09;100.00
54389;BME280;40975;50.390;8.640;2023-03-16T00:41:23;99576.59;;;-3.09;100.00
54389;BME280;40975;50.390;8.640;2023-03-16T00:43:49;99581.81;;;-3.09;100.00
54389;BME280;40975;50.390;8.640;2023-03-16T00:46:17;99579.06;;;-3.04;100.00
54389;BME280;40975;50.390;8.640;2023-03-16T00:48:44;99572.38;;;-3.12;100.00
54389;BME280;40975;50.390;8.640;2023-03-16T00:51:14;99564.59;;;-3.12;100.00
54389;BME280;40975;50.390;8.640;2023-03-16T00:53:41;99574.13;;;-3.12;100.00
54389;BME280;40975;50.390;8.640;2023-03-16T00:56:07;99565.75;;;-3.20;100.00
54389;BME280;40975;50.390;8.640;2023-03-16T00:58:34;99570.22;;;-3.25;100.00
54389;BME280;40975;50.390;8.640;2023-03-16T01:01:26;99570.41;;;-3.32;100.00
54389;BME280;40975;50.390;8.640;2023-03-16T01:03:52;99562.03;;;-3.40;100.00
54389;BME280;40975;50.390;8.640;2023-03-16T01:06:20;99565.31;;;-3.35;100.00
54389;BME280;40975;50.390;8.640;2023-03-16T01:08:46;99559.59;;;-3.46;100.00
54389;BME280;40975;50.390;8.640;2023-03-16T01:11:15;99563.97;;;-3.48;100.00
54389;BME280;40975;50.390;8.640;2023-03-16T01:13:41;99564.84;;;-3.48;100.00
54389;BME280;40975;50.390;8.640;2023-03-16T01:16:07;99569.91;;;-3.43;100.00
54389;BME280;40975;50.390;8.640;2023-03-16T01:18:33;99570.78;;;-3.44;100.00
54389;BME280;40975;50.390;8.640;2023-03-16T01:21:03;99562.06;;;-3.41;100.00
54389;BME280;40975;50.390;8.640;2023-03-16T01:23:31;99550.84;;;-3.42;100.00
54389;BME280;40975;50.390;8.640;2023-03-16T01:25:57;99556.63;;;-3.34;100.00
54389;BME280;40975;50.390;8.640;2023-03-16T01:28:25;99555.00;;;-3.38;100.00
54389;BME280;40975;50.390;8.640;2023-03-16T01:30:51;99551.28;;;-3.29;100.00
54389;BME280;40975;50.390;8.640;2023-03-16T01:33:19;99549.59;;;-3.30;100.00
54389;BME280;40975;50.390;8.640;2023-03-16T01:35:56;99543.31;;;-3.23;100.00
54389;BME280;40975;50.390;8.640;2023-03-16T01:38:22;99537.34;;;-3.25;100.00
54389;BME280;40975;50.390;8.640;2023-03-16T01:40:49;99536.16;;;-3.16;100.00
54389;BME280;40975;50.390;8.640;2023-03-16T01:43:17;99539.56;;;-3.14;100.00
54389;BME280;40975;50.390;8.640;2023-03-16T01:46:08;99539.63;;;-3.16;100.00
54389;BME280;40975;50.390;8.640;2023-03-16T01:48:47;99537.22;;;-3.22;100.00
54389;BME280;40975;50.390;8.640;2023-03-16T01:51:26;99531.34;;;-3.29;100.00
54389;BME280;40975;50.390;8.640;2023-03-16T01:53:55;99525.41;;;-3.32;100.00
54389;BME280;40975;50.390;8.640;2023-03-16T01:56:25;99516.06;;;-3.36;100.00
54389;BME280;40975;50.390;8.640;2023-03-16T01:58:52;99517.91;;;-3.40;100.00
54389;BME280;40975;50.390;8.640;2023-03-16T02:01:23;99510.16;;;-3.41;100.00
54389;BME280;40975;50.390;8.640;2023-03-16T02:03:53;99514.38;;;-3.39;100.00
54389;BME280;40975;50.390;8.640;2023-03-16T02:06:21;99518.88;;;-3.44;100.00
54389;BME280;40975;50.390;8.640;2023-03-16T02:08:52;99542.00;;;-3.36;100.00
54389;BME280;40975;50.390;8.640;2023-03-16T02:11:20;99538.53;;;-3.35;100.00
54389;BME280;40975;50.390;8.640;2023-03-16T02:14:08;99543.06;;;-3.42;100.00
54389;BME280;40975;50.390;8.640;2023-03-16T02:16:34;99539.50;;;-3.39;100.00
54389;BME280;40975;50.390;8.640;2023-03-16T02:19:00;99535.41;;;-3.47;100.00
54389;BME280;40975;50.390;8.640;2023-03-16T02:21:31;99528.50;;;-3.48;100.00
54389;BME280;40975;50.390;8.640;2023-03-16T02:24:00;99521.63;;;-3.49;100.00
54389;BME280;40975;50.390;8.640;2023-03-16T02:26:57;99517.47;;;-3.54;100.00
54389;BME280;40975;50.390;8.640;2023-03-16T02:32:06;99504.56;;;-3.56;100.00
54389;BME280;40975;50.390;8.640;2023-03-16T02:34:32;99495.16;;;-3.60;100.00
54389;BME280;40975;50.390;8.640;2023-03-16T02:36:58;99498.78;;;-3.66;100.00
54389;BME280;40975;50.390;8.640;2023-03-16T02:39:26;99496.09;;;-3.63;100.00
54389;BME280;40975;50.390;8.640;2023-03-16T02:41:51;99496.25;;;-3.67;100.00
54389;BME280;40975;50.390;8.640;2023-03-16T02:44:29;99496.13;;;-3.64;100.00
54389;BME280;40975;50.390;8.640;2023-03-16T02:47:00;99487.50;;;-3.65;100.00
54389;BME280;40975;50.390;8.640;2023-03-16T02:49:39;99480.69;;;-3.67;100.00
54389;BME280;40975;50.390;8.640;2023-03-16T02:52:07;99490.19;;;-3.68;100.00
54389;BME280;40975;50.390;8.640;2023-03-16T02:54:33;99495.34;;;-3.66;100.00
54389;BME280;40975;50.390;8.640;2023-03-16T02:56:58;99494.19;;;-3.57;100.00
54389;BME280;40975;50.390;8.640;2023-03-16T02:59:25;99487.31;;;-3.59;100.00
54389;BME280;40975;50.390;8.640;2023-03-16T03:01:50;99480.31;;;-3.55;100.00
54389;BME280;40975;50.390;8.640;2023-03-16T03:04:16;99481.75;;;-3.46;100.00
54389;BME280;40975;50.390;8.640;2023-03-16T03:06:42;99480.25;;;-3.53;100.00
54389;BME280;40975;50.390;8.640;2023-03-16T03:09:08;99478.53;;;-3.54;100.00
54389;BME280;40975;50.390;8.640;2023-03-16T03:11:36;99481.94;;;-3.52;100.00
54389;BME280;40975;50.390;8.640;2023-03-16T03:14:02;99484.41;;;-3.48;100.00
54389;BME280;40975;50.390;8.640;2023-03-16T03:16:28;99480.19;;;-3.52;100.00
54389;BME280;40975;50.390;8.640;2023-03-16T03:18:55;99476.19;;;-3.62;100.00
54389;BME280;40975;50.390;8.640;2023-03-16T03:21:20;99482.94;;;-3.56;100.00
54389;BME280;40975;50.390;8.640;2023-03-16T03:23:46;99483.22;;;-3.66;100.00
54389;BME280;40975;50.390;8.640;2023-03-16T03:26:12;99485.22;;;-3.74;100.00
54389;BME280;40975;50.390;8.640;2023-03-16T03:28:40;99482.38;;;-3.66;100.00
54389;BME280;40975;50.390;8.640;2023-03-16T03:31:06;99475.72;;;-3.75;100.00
54389;BME280;40975;50.390;8.640;2023-03-16T03:33:32;99480.72;;;-3.69;100.00
54389;BME280;40975;50.390;8.640;2023-03-16T03:35:58;99475.44;;;-3.66;100.00
54389;BME280;40975;50.390;8.640;2023-03-16T03:38:28;99476.34;;;-3.67;100.00
54389;BME280;40975;50.390;8.640;2023-03-16T03:40:54;99472.00;;;-3.66;100.00
54389;BME280;40975;50.390;8.640;2023-03-16T03:43:25;99477.47;;;-3.76;100.00
54389;BME280;40975;50.390;8.640;2023-03-16T03:45:58;99481.94;;;-3.81;100.00
54389;BME280;40975;50.390;8.640;2023-03-16T03:48:25;99488.97;;;-3.84;100.00
54389;BME280;40975;50.390;8.640;2023-03-16T03:50:50;99477.94;;;-3.91;100.00
54389;BME280;40975;50.390;8.640;2023-03-16T03:53:31;99483.31;;;-3.97;100.00
54389;BME280;40975;50.390;8.640;2023-03-16T03:56:10;99471.16;;;-3.95;100.00
54389;BME280;40975;50.390;8.640;2023-03-16T03:58:37;99467.63;;;-3.93;100.00
54389;BME280;40975;50.390;8.640;2023-03-16T04:01:02;99468.44;;;-3.91;100.00
54389;BME280;40975;50.390;8.640;2023-03-16T04:03:29;99463.94;;;-3.85;100.00
54389;BME280;40975;50.390;8.640;2023-03-16T04:05:55;99466.72;;;-3.92;100.00
54389;BME280;40975;50.390;8.640;2023-03-16T04:08:21;99455.34;;;-3.87;100.00
54389;BME280;40975;50.390;8.640;2023-03-16T04:10:47;99468.16;;;-3.81;100.00
54389;BME280;40975;50.390;8.640;2023-03-16T04:13:13;99466.59;;;-3.87;100.00
54389;BME280;40975;50.390;8.640;2023-03-16T04:15:38;99463.19;;;-3.89;100.00
54389;BME280;40975;50.390;8.640;2023-03-16T04:18:12;99454.66;;;-3.93;100.00
54389;BME280;40975;50.390;8.640;2023-03-16T04:20:38;99463.38;;;-3.95;100.00
54389;BME280;40975;50.390;8.640;2023-03-16T04:23:04;99463.53;;;-4.00;100.00
54389;BME280;40975;50.390;8.640;2023-03-16T04:25:31;99455.97;;;-4.08;100.00
54389;BME280;40975;50.390;8.640;2023-03-16T04:27:57;99470.25;;;-3.94;100.00
54389;BME280;40975;50.390;8.640;2023-03-16T04:30:26;99465.88;;;-3.92;100.00
54389;BME280;40975;50.390;8.640;2023-03-16T04:33:00;99451.72;;;-3.82;100.00
54389;BME280;40975;50.390;8.640;2023-03-16T04:35:26;99457.66;;;-3.78;100.00
54389;BME280;40975;50.390;8.640;2023-03-16T04:37:54;99448.00;;;-3.73;100.00
54389;BME280;40975;50.390;8.640;2023-03-16T04:40:25;99445.34;;;-3.71;100.00
54389;BME280;40975;50.390;8.640;2023-03-16T04:42:59;99443.41;;;-3.65;100.00
54389;BME280;40975;50.390;8.640;2023-03-16T04:45:25;99445.13;;;-3.64;100.00
54389;BME280;40975;50.390;8.640;2023-03-16T04:47:53;99446.75;;;-3.61;100.00
54389;BME280;40975;50.390;8.640;2023-03-16T04:50:19;99438.38;;;-3.69;100.00
54389;BME280;40975;50.390;8.640;2023-03-16T04:52:49;99447.03;;;-3.70;100.00
54389;BME280;40975;50.390;8.640;2023-03-16T04:55:16;99442.91;;;-3.76;100.00
54389;BME280;40975;50.390;8.640;2023-03-16T04:57:42;99442.22;;;-3.81;100.00
54389;BME280;40975;50.390;8.640;2023-03-16T05:00:08;99438.88;;;-3.85;100.00
54389;BME280;40975;50.390;8.640;2023-03-16T05:02:40;99452.38;;;-3.75;100.00
54389;BME280;40975;50.390;8.640;2023-03-16T05:05:05;99452.47;;;-3.78;100.00
54389;BME280;40975;50.390;8.640;2023-03-16T05:07:31;99451.69;;;-3.80;100.00
54389;BME280;40975;50.390;8.640;2023-03-16T05:09:57;99450.59;;;-3.73;100.00
54389;BME280;40975;50.390;8.640;2023-03-16T05:12:22;99448.91;;;-3.74;100.00
54389;BME280;40975;50.390;8.640;2023-03-16T05:14:52;99442.72;;;-3.70;100.00
54389;BME280;40975;50.390;8.640;2023-03-16T05:17:23;99450.53;;;-3.71;100.00
54389;BME280;40975;50.390;8.640;2023-03-16T05:19:49;99451.63;;;-3.79;100.00
54389;BME280;40975;50.390;8.640;2023-03-16T05:22:15;99442.09;;;-3.78;100.00
54389;BME280;40975;50.390;8.640;2023-03-16T05:25:00;99447.34;;;-3.80;100.00
54389;BME280;40975;50.390;8.640;2023-03-16T05:27:28;99453.34;;;-3.78;100.00
54389;BME280;40975;50.390;8.640;2023-03-16T05:29:54;99456.88;;;-3.80;100.00
54389;BME280;40975;50.390;8.640;2023-03-16T05:32:20;99462.00;;;-3.79;100.00
54389;BME280;40975;50.390;8.640;2023-03-16T05:34:45;99450.66;;;-3.75;100.00
54389;BME280;40975;50.390;8.640;2023-03-16T05:37:11;99449.72;;;-3.73;100.00
54389;BME280;40975;50.390;8.640;2023-03-16T05:39:36;99449.72;;;-3.73;100.00
54389;BME280;40975;50.390;8.640;2023-03-16T05:42:02;99448.16;;;-3.78;100.00
54389;BME280;40975;50.390;8.640;2023-03-16T05:44:37;99442.88;;;-3.75;100.00
54389;BME280;40975;50.390;8.640;2023-03-16T05:47:22;99429.78;;;-3.71;100.00
54389;BME280;40975;50.390;8.640;2023-03-16T05:49:53;99436.06;;;-3.79;100.00
54389;BME280;40975;50.390;8.640;2023-03-16T05:52:28;99436.59;;;-3.67;100.00
54389;BME280;40975;50.390;8.640;2023-03-16T05:54:56;99439.03;;;-3.63;100.00
54389;BME280;40975;50.390;8.640;2023-03-16T05:57:21;99429.19;;;-3.53;100.00
54389;BME280;40975;50.390;8.640;2023-03-16T05:59:49;99431.47;;;-3.44;100.00
54389;BME280;40975;50.390;8.640;2023-03-16T06:02:15;99429.44;;;-3.34;100.00
54389;BME280;40975;50.390;8.640;2023-03-16T06:04:41;99434.25;;;-3.23;100.00
54389;BME280;40975;50.390;8.640;2023-03-16T06:07:06;99433.94;;;-3.14;100.00
54389;BME280;40975;50.390;8.640;2023-03-16T06:09:32;99439.84;;;-3.08;100.00
54389;BME280;40975;50.390;8.640;2023-03-16T06:11:59;99436.22;;;-3.04;100.00
54389;BME280;40975;50.390;8.640;2023-03-16T06:14:24;99439.38;;;-2.94;100.00
54389;BME280;40975;50.390;8.640;2023-03-16T06:16:51;99440.03;;;-2.89;100.00
54389;BME280;40975;50.390;8.640;2023-03-16T06:19:16;99442.38;;;-2.82;100.00
54389;BME280;40975;50.390;8.640;2023-03-16T06:21:43;99449.03;;;-2.74;100.00
54389;BME280;40975;50.390;8.640;2023-03-16T06:24:10;99438.66;;;-2.74;100.00
54389;BME280;40975;50.390;8.640;2023-03-16T06:26:36;99445.13;;;-2.61;100.00
54389;BME280;40975;50.390;8.640;2023-03-16T06:29:03;99446.72;;;-2.57;100.00
54389;BME280;40975;50.390;8.640;2023-03-16T06:31:32;99445.50;;;-2.48;100.00
54389;BME280;40975;50.390;8.640;2023-03-16T06:33:59;99452.06;;;-2.38;100.00
54389;BME280;40975;50.390;8.640;2023-03-16T06:36:26;99449.13;;;-2.28;100.00
54389;BME280;40975;50.390;8.640;2023-03-16T06:38:54;99447.03;;;-2.19;100.00
54389;BME280;40975;50.390;8.640;2023-03-16T06:41:27;99451.06;;;-2.10;100.00
54389;BME280;40975;50.390;8.640;2023-03-16T06:43:52;99447.25;;;-2.01;100.00
54389;BME280;40975;50.390;8.640;2023-03-16T06:46:18;99442.47;;;-1.90;100.00
54389;BME280;40975;50.390;8.640;2023-03-16T06:48:44;99448.00;;;-1.75;100.00
54389;BME280;40975;50.390;8.640;2023-03-16T06:51:11;99444.69;;;-1.58;100.00
54389;BME280;40975;50.390;8.640;2023-03-16T06:53:36;99447.31;;;-1.36;100.00
54389;BME280;40975;50.390;8.640;2023-03-16T06:56:02;99440.53;;;-1.19;100.00
54389;BME280;40975;50.390;8.640;2023-03-16T06:58:30;99444.69;;;-0.95;100.00
54389;BME280;40975;50.390;8.640;2023-03-16T07:00:55;99446.75;;;-0.61;100.00
54389;BME280;40975;50.390;8.640;2023-03-16T07:03:21;99445.66;;;-0.18;100.00
54389;BME280;40975;50.390;8.640;2023-03-16T07:05:53;99446.44;;;0.40;100.00
54389;BME280;40975;50.390;8.640;2023-03-16T07:08:18;99445.13;;;0.86;100.00
54389;BME280;40975;50.390;8.640;2023-03-16T07:10:44;99445.13;;;1.70;100.00
54389;BME280;40975;50.390;8.640;2023-03-16T07:13:09;99441.88;;;2.15;100.00
54389;BME280;40975;50.390;8.640;2023-03-16T07:15:35;99447.16;;;3.06;100.00
54389;BME280;40975;50.390;8.640;2023-03-16T07:18:01;99444.94;;;3.29;100.00
54389;BME280;40975;50.390;8.640;2023-03-16T07:20:27;99448.78;;;3.96;96.88
54389;BME280;40975;50.390;8.640;2023-03-16T07:22:55;99452.47;;;4.20;93.46
54389;BME280;40975;50.390;8.640;2023-03-16T07:25:21;99449.63;;;3.96;91.48
54389;BME280;40975;50.390;8.640;2023-03-16T07:27:51;99453.31;;;3.79;94.22
54389;BME280;40975;50.390;8.640;2023-03-16T07:30:22;99461.06;;;3.95;93.53
54389;BME280;40975;50.390;8.640;2023-03-16T07:32:50;99460.34;;;3.93;92.74
54389;BME280;40975;50.390;8.640;2023-03-16T07:35:17;99447.03;;;3.82;92.38
54389;BME280;40975;50.390;8.640;2023-03-16T07:37:43;99455.38;;;3.88;92.34
54389;BME280;40975;50.390;8.640;2023-03-16T07:40:09;99446.53;;;3.89;93.03
54389;BME280;40975;50.390;8.640;2023-03-16T07:42:35;99449.38;;;3.86;93.02
54389;BME280;40975;50.390;8.640;2023-03-16T07:45:07;99445.13;;;4.80;90.04
54389;BME280;40975;50.390;8.640;2023-03-16T07:47:33;99448.94;;;4.89;89.17
54389;BME280;40975;50.390;8.640;2023-03-16T07:50:07;99449.06;;;5.01;88.50
54389;BME280;40975;50.390;8.640;2023-03-16T07:52:34;99448.25;;;5.39;86.65
54389;BME280;40975;50.390;8.640;2023-03-16T07:54:59;99439.84;;;5.97;85.08
54389;BME280;40975;50.390;8.640;2023-03-16T07:57:24;99449.59;;;5.83;84.25
54389;BME280;40975;50.390;8.640;2023-03-16T07:59:51;99447.25;;;5.01;85.96
54389;BME280;40975;50.390;8.640;2023-03-16T08:02:18;99443.69;;;4.62;89.16
54389;BME280;40975;50.390;8.640;2023-03-16T08:04:44;99442.47;;;4.40;90.71
54389;BME280;40975;50.390;8.640;2023-03-16T08:07:13;99445.53;;;4.47;91.74
54389;BME280;40975;50.390;8.640;2023-03-16T08:09:56;99446.31;;;4.89;89.84
54389;BME280;40975;50.390;8.640;2023-03-16T08:12:27;99449.28;;;5.10;89.33
54389;BME280;40975;50.390;8.640;2023-03-16T08:14:53;99441.66;;;4.80;89.22
54389;BME280;40975;50.390;8.640;2023-03-16T08:17:26;99439.28;;;5.54;88.32
54389;BME280;40975;50.390;8.640;2023-03-16T08:19:52;99438.94;;;5.85;85.64
54389;BME280;40975;50.390;8.640;2023-03-16T08:22:19;99447.28;;;5.66;85.09
54389;BME280;40975;50.390;8.640;2023-03-16T08:24:45;99437.69;;;5.78;82.41
54389;BME280;40975;50.390;8.640;2023-03-16T08:27:13;99438.97;;;5.72;84.02
54389;BME280;40975;50.390;8.640;2023-03-16T08:29:43;99431.97;;;5.84;82.97
54389;BME280;40975;50.390;8.640;2023-03-16T08:32:12;99436.97;;;5.50;83.66
54389;BME280;40975;50.390;8.640;2023-03-16T08:34:41;99436.88;;;6.14;83.97
54389;BME280;40975;50.390;8.640;2023-03-16T08:37:07;99431.34;;;6.90;81.00
54389;BME280;40975;50.390;8.640;2023-03-16T08:39:34;99424.38;;;7.47;76.48
54389;BME280;40975;50.390;8.640;2023-03-16T08:42:03;99424.06;;;6.69;76.81
54389;BME280;40975;50.390;8.640;2023-03-16T08:44:40;99414.38;;;6.70;78.85
54389;BME280;40975;50.390;8.640;2023-03-16T08:47:06;99420.13;;;7.22;77.68
54389;BME280;40975;50.390;8.640;2023-03-16T08:49:33;99411.97;;;7.14;76.75
54389;BME280;40975;50.390;8.640;2023-03-16T08:52:09;99416.56;;;7.69;75.33
54389;BME280;40975;50.390;8.640;2023-03-16T08:54:35;99408.59;;;8.58;70.13
54389;BME280;40975;50.390;8.640;2023-03-16T08:57:01;99402.72;;;10.40;64.35
54389;BME280;40975;50.390;8.640;2023-03-16T08:59:27;99392.50;;;11.80;58.62
54389;BME280;40975;50.390;8.640;2023-03-16T09:01:52;99382.47;;;13.18;55.74
54389;BME280;40975;50.390;8.640;2023-03-16T09:04:18;99377.25;;;13.09;52.17
54389;BME280;40975;50.390;8.640;2023-03-16T09:06:45;99382.03;;;13.92;50.59
54389;BME280;40975;50.390;8.640;2023-03-16T09:09:12;99374.81;;;14.77;48.41
54389;BME280;40975;50.390;8.640;2023-03-16T09:11:37;99386.03;;;14.97;47.61
54389;BME280;40975;50.390;8.640;2023-03-16T09:14:03;99396.69;;;16.10;45.76
54389;BME280;40975;50.390;8.640;2023-03-16T09:16:28;99385.00;;;16.11;44.74
54389;BME280;40975;50.390;8.640;2023-03-16T09:18:55;99405.06;;;14.86;46.44
54389;BME280;40975;50.390;8.640;2023-03-16T09:21:20;99404.38;;;14.84;47.02
54389;BME280;40975;50.390;8.640;2023-03-16T09:23:46;99407.66;;;15.44;46.85
54389;BME280;40975;50.390;8.640;2023-03-16T09:26:11;99402.75;;;15.55;45.36
54389;BME280;40975;50.390;8.640;2023-03-16T09:28:38;99403.53;;;13.99;47.98
54389;BME280;40975;50.390;8.640;2023-03-16T09:31:06;99402.91;;;13.10;50.75
54389;BME280;40975;50.390;8.640;2023-03-16T09:33:34;99396.22;;;13.32;49.68
54389;BME280;40975;50.390;8.640;2023-03-16T09:36:00;99393.06;;;13.36;49.24
54389;BME280;40975;50.390;8.640;2023-03-16T09:38:26;99389.25;;;13.65;49.35
54389;BME280;40975;50.390;8.640;2023-03-16T09:46:45;99389.47;;;14.56;48.10
54389;BME280;40975;50.390;8.640;2023-03-16T09:49:15;99385.69;;;14.84;46.54
54389;BME280;40975;50.390;8.640;2023-03-16T09:52:31;99386.44;;;15.90;46.11
54389;BME280;40975;50.390;8.640;2023-03-16T09:54:40;99397.81;;;16.93;44.07
54389;BME280;40975;50.390;8.640;2023-03-16T09:57:23;99398.06;;;16.60;43.20
54389;BME280;40975;50.390;8.640;2023-03-16T09:59:50;99394.06;;;16.01;44.17
54389;BME280;40975;50.390;8.640;2023-03-16T10:02:37;99395.19;;;16.85;44.19
54389;BME280;40975;50.390;8.640;2023-03-16T10:05:16;99391.53;;;16.78;44.16
54389;BME280;40975;50.390;8.640;2023-03-16T10:13:04;99401.59;;;16.61;43.04
54389;BME280;40975;50.390;8.640;2023-03-16T10:15:39;99392.16;;;15.87;44.08
54389;BME280;40975;50.390;8.640;2023-03-16T10:18:19;99394.53;;;15.01;46.00
54389;BME280;40975;50.390;8.640;2023-03-16T10:20:47;99390.00;;;14.68;46.74
54389;BME280;40975;50.390;8.640;2023-03-16T10:23:19;99393.25;;;13.09;48.12
54389;BME280;40975;50.390;8.640;2023-03-16T10:25:47;99396.88;;;12.63;49.74
54389;BME280;40975;50.390;8.640;2023-03-16T10:28:22;99385.44;;;11.98;53.38
54389;BME280;40975;50.390;8.640;2023-03-16T10:30:50;99391.53;;;10.96;57.21
54389;BME280;40975;50.390;8.640;2023-03-16T10:41:05;99388.03;;;10.85;56.00
54389;BME280;40975;50.390;8.640;2023-03-16T10:43:30;99384.66;;;11.13;56.60
54389;BME280;40975;50.390;8.640;2023-03-16T10:46:02;99384.50;;;11.14;56.51
54389;BME280;40975;50.390;8.640;2023-03-16T10:48:30;99376.09;;;11.57;56.17
54389;BME280;40975;50.390;8.640;2023-03-16T10:50:58;99373.22;;;12.06;53.65
54389;BME280;40975;50.390;8.640;2023-03-16T10:53:29;99375.53;;;13.26;53.22
54389;BME280;40975;50.390;8.640;2023-03-16T10:56:01;99371.22;;;13.59;51.25
54389;BME280;40975;50.390;8.640;2023-03-16T10:58:32;99362.16;;;13.17;49.40
54389;BME280;40975;50.390;8.640;2023-03-16T11:00:58;99346.59;;;13.74;51.16
54389;BME280;40975;50.390;8.640;2023-03-16T11:03:37;99340.16;;;13.84;49.93
54389;BME280;40975;50.390;8.640;2023-03-16T11:06:05;99342.78;;;12.81;50.69
54389;BME280;40975;50.390;8.640;2023-03-16T11:08:38;99352.34;;;13.44;49.90
54389;BME280;40975;50.390;8.640;2023-03-16T11:11:20;99358.75;;;13.68;49.77
54389;BME280;40975;50.390;8.640;2023-03-16T11:13:55;99352.47;;;12.64;51.67
54389;BME280;40975;50.390;8.640;2023-03-16T11:16:33;99355.94;;;13.35;51.61
54389;BME280;40975;50.390;8.640;2023-03-16T11:19:10;99344.75;;;12.79;51.42
54389;BME280;40975;50.390;8.640;2023-03-16T11:22:23;99346.84;;;12.93;51.36
54389;BME280;40975;50.390;8.640;2023-03-16T11:27:41;99331.56;;;13.03;51.06
54389;BME280;40975;50.390;8.640;2023-03-16T11:31:36;99317.69;;;12.65;54.51
54389;BME280;40975;50.390;8.640;2023-03-16T11:33:26;99324.81;;;12.38;52.55
54389;BME280;40975;50.390;8.640;2023-03-16T11:39:16;99325.13;;;12.17;52.71
54389;BME280;40975;50.390;8.640;2023-03-16T11:41:55;99329.09;;;11.57;54.56
54389;BME280;40975;50.390;8.640;2023-03-16T11:50:22;99313.78;;;12.15;55.61
54389;BME280;40975;50.390;8.640;2023-03-16T11:53:00;99318.41;;;11.67;55.05
54389;BME280;40975;50.390;8.640;2023-03-16T11:58:48;99293.00;;;10.99;58.95
54389;BME280;40975;50.390;8.640;2023-03-16T12:01:23;99298.91;;;10.83;57.13
54389;BME280;40975;50.390;8.640;2023-03-16T12:04:23;99303.63;;;11.82;55.84
54389;BME280;40975;50.390;8.640;2023-03-16T12:12:18;99301.19;;;11.43;57.05
54389;BME280;40975;50.390;8.640;2023-03-16T12:14:55;99291.53;;;10.77;57.83
54389;BME280;40975;50.390;8.640;2023-03-16T12:17:29;99292.00;;;10.52;59.98
54389;BME280;40975;50.390;8.640;2023-03-16T12:22:29;99283.88;;;10.24;60.32
54389;BME280;40975;50.390;8.640;2023-03-16T12:24:56;99288.91;;;10.27;60.06
54389;BME280;40975;50.390;8.640;2023-03-16T12:27:34;99285.16;;;10.40;61.30
54389;BME280;40975;50.390;8.640;2023-03-16T12:30:23;99273.97;;;10.17;61.94
54389;BME280;40975;50.390;8.640;2023-03-16T12:33:05;99261.97;;;10.42;61.25
54389;BME280;40975;50.390;8.640;2023-03-16T12:35:42;99262.72;;;10.82;58.75
54389;BME280;40975;50.390;8.640;2023-03-16T12:38:24;99269.63;;;11.02;58.75
54389;BME280;40975;50.390;8.640;2023-03-16T12:41:12;99247.81;;;11.37;57.13
54389;BME280;40975;50.390;8.640;2023-03-16T12:46:41;99242.13;;;11.49;57.13
54389;BME280;40975;50.390;8.640;2023-03-16T12:49:11;99251.19;;;10.63;59.57
54389;BME280;40975;50.390;8.640;2023-03-16T12:51:39;99245.50;;;10.09;60.68
54389;BME280;40975;50.390;8.640;2023-03-16T12:54:23;99246.50;;;10.18;62.51
54389;BME280;40975;50.390;8.640;2023-03-16T12:56:51;99239.38;;;9.79;63.59
54389;BME280;40975;50.390;8.640;2023-03-16T12:59:22;99230.44;;;9.80;62.74
54389;BME280;40975;50.390;8.640;2023-03-16T13:01:56;99234.19;;;9.58;63.79
54389;BME280;40975;50.390;8.640;2023-03-16T13:04:38;99235.25;;;9.36;65.13
54389;BME280;40975;50.390;8.640;2023-03-16T13:07:08;99230.41;;;9.00;68.28
54389;BME280;40975;50.390;8.640;2023-03-16T13:09:41;99233.56;;;9.25;68.34
54389;BME280;40975;50.390;8.640;2023-03-16T13:12:08;99231.72;;;9.25;66.31
54389;BME280;40975;50.390;8.640;2023-03-16T13:14:42;99227.16;;;9.27;67.66
54389;BME280;40975;50.390;8.640;2023-03-16T13:19:39;99215.84;;;9.25;67.42
54389;BME280;40975;50.390;8.640;2023-03-16T13:25:11;99199.72;;;9.48;66.21
54389;BME280;40975;50.390;8.640;2023-03-16T13:27:38;99205.94;;;10.55;65.91
54389;BME280;40975;50.390;8.640;2023-03-16T13:30:20;99210.41;;;10.54;63.59
54389;BME280;40975;50.390;8.640;2023-03-16T13:32:47;99209.16;;;10.29;65.45
54389;BME280;40975;50.390;8.640;2023-03-16T13:35:14;99206.66;;;10.27;64.87
54389;BME280;40975;50.390;8.640;2023-03-16T13:37:42;99209.22;;;10.00;65.54
54389;BME280;40975;50.390;8.640;2023-03-16T13:40:24;99209.38;;;9.98;66.91
54389;BME280;40975;50.390;8.640;2023-03-16T13:42:51;99200.00;;;10.04;65.35
54389;BME280;40975;50.390;8.640;2023-03-16T13:45:32;99202.44;;;10.54;65.78
54389;BME280;40975;50.390;8.640;2023-03-16T13:47:59;99200.13;;;10.32;65.25
54389;BME280;40975;50.390;8.640;2023-03-16T13:50:25;99200.81;;;10.24;65.90
54389;BME280;40975;50.390;8.640;2023-03-16T13:52:59;99204.06;;;10.18;66.07
54389;BME280;40975;50.390;8.640;2023-03-16T13:55:30;99210.47;;;9.95;66.45
54389;BME280;40975;50.390;8.640;2023-03-16T13:57:56;99199.06;;;9.75;66.07
54389;BME280;40975;50.390;8.640;2023-03-16T14:00:24;99183.28;;;9.64;68.15
54389;BME280;40975;50.390;8.640;2023-03-16T14:02:55;99189.56;;;9.63;69.86
54389;BME280;40975;50.390;8.640;2023-03-16T14:05:30;99181.31;;;9.76;70.73